Terminal Aerodrome Forecast
Issued by NWS

Home | Current Version | Previous Version | Text Only | Print | Product List | Glossary On
Versions: 1 2 3 4 5 6 7 8 9 10 11 12 13 14 15
000
FTUS46 KMTR 271741
TAFSJC
TAF
KSJC 271741Z 2718/2818 27006KT P6SM FEW024 BKN100
     FM271900 30013KT P6SM BKN200
     FM272200 32016G22KT P6SM FEW030 SCT250
     FM280400 31012KT P6SM FEW020 SCT250
     FM280600 31006KT P6SM FEW020 SCT250=

USA.gov is the U.S. government's official web portal to all federal, state and local government web resources and services.